createdAt,value
2018-11-21T00:00:20.009Z,41.33
2018-11-21T00:03:24.582Z,43.33
2018-11-21T00:06:29.180Z,39.70
2018-11-21T00:09:33.807Z,41.27
2018-11-21T00:12:39.441Z,41.63
2018-11-21T00:15:44.036Z,43.00
2018-11-21T00:18:48.612Z,43.10
2018-11-21T00:21:53.193Z,44.87
2018-11-21T00:24:57.823Z,39.73
2018-11-21T00:28:03.017Z,41.53
2018-11-21T00:31:08.325Z,35.70
2018-11-21T00:34:12.909Z,36.37
2018-11-21T00:37:18.386Z,37.73
2018-11-21T00:40:22.976Z,40.37
2018-11-21T00:43:27.546Z,39.57
2018-11-21T00:46:32.437Z,43.13
2018-11-21T00:49:37.060Z,42.93
2018-11-21T00:52:41.637Z,44.87
2018-11-21T00:55:46.366Z,40.53
2018-11-21T00:58:51.014Z,41.80
2018-11-21T01:01:55.624Z,46.37
2018-11-21T01:05:00.483Z,38.63
2018-11-21T01:08:05.390Z,42.67
2018-11-21T01:11:10.113Z,38.73
2018-11-21T01:14:14.680Z,41.87
2018-11-21T01:17:20.085Z,41.27
2018-11-21T01:20:24.972Z,41.40
2018-11-21T01:23:29.549Z,42.53
2018-11-21T01:26:34.498Z,40.70
2018-11-21T01:29:39.075Z,42.47
2018-11-21T01:32:43.986Z,45.50
2018-11-21T01:35:48.561Z,44.80
2018-11-21T01:38:54.474Z,43.20
2018-11-21T01:41:59.238Z,46.90
2018-11-21T01:45:04.105Z,47.83
2018-11-21T01:48:08.689Z,48.33
2018-11-21T01:51:13.288Z,42.90
2018-11-21T01:54:17.905Z,45.17
2018-11-21T01:57:22.614Z,44.20
2018-11-21T02:00:27.199Z,43.57
2018-11-21T02:03:31.842Z,45.33
2018-11-21T02:06:36.436Z,40.23
2018-11-21T02:09:41.005Z,39.90
2018-11-21T02:12:45.593Z,40.87
2018-11-21T02:15:50.583Z,41.17
2018-11-21T02:18:55.161Z,40.80
2018-11-21T02:21:59.761Z,38.83
2018-11-21T02:25:05.531Z,44.47
2018-11-21T02:28:10.531Z,44.20
2018-11-21T02:31:15.148Z,38.63
2018-11-21T02:34:20.105Z,41.60
2018-11-21T02:37:24.746Z,42.20
2018-11-21T02:40:29.663Z,38.03
2018-11-21T02:43:34.248Z,40.17
2018-11-21T02:46:38.842Z,39.67
2018-11-21T02:49:43.719Z,43.27
2018-11-21T02:52:48.603Z,42.73
2018-11-21T02:55:53.197Z,42.70
2018-11-21T02:58:57.797Z,46.57
2018-11-21T03:02:03.367Z,48.07
2018-11-21T03:05:07.922Z,43.43
2018-11-21T03:08:12.551Z,41.10
2018-11-21T03:11:17.127Z,38.50
2018-11-21T03:14:21.728Z,41.93
2018-11-21T03:17:26.348Z,37.83
2018-11-21T03:20:31.550Z,36.47
2018-11-21T03:23:36.477Z,39.50
2018-11-21T03:26:41.171Z,39.30
2018-11-21T03:29:45.758Z,42.23
2018-11-21T03:32:51.444Z,40.20
2018-11-21T03:35:56.186Z,40.07
2018-11-21T03:39:00.806Z,42.27
2018-11-21T03:42:05.386Z,42.70
2018-11-21T03:45:10.866Z,41.37
2018-11-21T03:48:15.846Z,40.47
2018-11-21T03:51:20.428Z,47.10
2018-11-21T03:54:25.047Z,48.47
2018-11-21T03:57:29.621Z,50.57
2018-11-21T04:00:34.200Z,42.70
2018-11-21T04:03:38.797Z,40.53
2018-11-21T04:06:43.412Z,39.43
2018-11-21T04:09:48.013Z,41.67
2018-11-21T04:12:52.633Z,41.67
2018-11-21T04:15:57.591Z,44.53
2018-11-21T04:19:02.210Z,38.60
2018-11-21T04:22:06.742Z,41.07
2018-11-21T04:25:11.870Z,42.47
2018-11-21T04:28:16.854Z,42.27
2018-11-21T04:31:21.452Z,37.47
2018-11-21T04:34:26.027Z,39.80
2018-11-21T04:37:31.277Z,36.83
2018-11-21T04:40:35.871Z,39.87
2018-11-21T04:43:40.814Z,37.30
2018-11-21T04:46:45.390Z,40.30
2018-11-21T04:49:49.978Z,40.47
2018-11-21T04:52:54.566Z,44.27
2018-11-21T04:55:59.324Z,43.20
2018-11-21T04:59:04.565Z,36.97
2018-11-21T05:02:09.133Z,38.67
2018-11-21T05:05:14.173Z,37.50
2018-11-21T05:08:18.742Z,37.37
2018-11-21T05:15:16.068Z,45.87
2018-11-21T05:18:21.344Z,42.90
2018-11-21T05:21:26.264Z,43.57
2018-11-21T05:24:31.037Z,43.63
2018-11-21T05:27:35.620Z,45.47
2018-11-21T05:30:40.211Z,49.67
2018-11-21T05:33:44.790Z,47.23
2018-11-21T05:36:49.708Z,66.93
2018-11-21T05:39:54.630Z,64.13
2018-11-21T05:42:59.275Z,61.17
2018-11-21T05:46:04.399Z,54.33
2018-11-21T05:49:09.003Z,64.03
2018-11-21T05:52:13.617Z,68.17
2018-11-21T05:55:18.576Z,94.60
2018-11-21T05:58:23.536Z,102.10
2018-11-21T06:01:28.553Z,92.20
2018-11-21T06:04:33.151Z,76.63
2018-11-21T06:07:37.814Z,69.93
2018-11-21T06:10:42.437Z,64.23
2018-11-21T06:13:47.067Z,57.43
2018-11-21T06:16:51.992Z,63.60
2018-11-21T06:19:56.646Z,90.70
2018-11-21T06:23:01.226Z,74.10
2018-11-21T06:26:06.176Z,70.53
2018-11-21T06:29:10.780Z,61.40
2018-11-21T06:32:15.379Z,58.37
2018-11-21T06:35:19.993Z,51.10
2018-11-21T06:38:24.601Z,52.30
2018-11-21T06:41:29.218Z,71.53
2018-11-21T06:44:33.874Z,75.17
2018-11-21T06:47:54.186Z,90.17
2018-11-21T06:50:58.795Z,66.87
2018-11-21T06:54:04.383Z,65.70
2018-11-21T06:57:08.972Z,63.20
2018-11-21T07:00:13.606Z,68.90
2018-11-21T07:03:18.601Z,74.87
2018-11-21T07:06:23.887Z,86.37
2018-11-21T07:09:47.021Z,87.47
2018-11-21T07:12:51.955Z,67.17
2018-11-21T07:15:56.589Z,70.83
2018-11-21T07:19:01.170Z,66.83
2018-11-21T07:22:05.993Z,54.63
2018-11-21T07:25:18.710Z,68.23
2018-11-21T07:28:23.324Z,73.93
2018-11-21T07:31:28.312Z,63.47
2018-11-21T07:34:32.895Z,54.30
2018-11-21T07:37:38.357Z,67.67
2018-11-21T07:40:43.002Z,58.57
2018-11-21T07:43:47.604Z,58.53
2018-11-21T07:46:52.204Z,75.43
2018-11-21T07:49:56.778Z,58.33
2018-11-21T07:53:01.639Z,70.10
2018-11-21T07:57:01.713Z,49.57
2018-11-21T08:00:55.398Z,57.63
2018-11-21T08:04:25.602Z,46.80
2018-11-21T08:07:43.210Z,42.20
2018-11-21T08:11:05.890Z,43.17
2018-11-21T08:14:48.316Z,48.53
2018-11-21T08:22:31.425Z,40.10
2018-11-21T08:25:55.687Z,35.07
2018-11-21T08:29:00.574Z,38.40
2018-11-21T08:32:05.191Z,36.47
2018-11-21T08:35:09.771Z,40.00
2018-11-21T08:38:14.834Z,37.77
2018-11-21T08:41:20.667Z,38.47
2018-11-21T08:44:25.275Z,35.83
2018-11-21T08:47:30.183Z,38.93
2018-11-21T08:50:34.965Z,38.70
2018-11-21T08:53:39.651Z,48.93
2018-11-21T08:56:44.342Z,41.83
2018-11-21T08:59:48.920Z,33.70
2018-11-21T09:02:53.689Z,33.60
2018-11-21T09:05:58.282Z,34.43
2018-11-21T09:09:04.746Z,32.07
2018-11-21T09:12:09.368Z,38.67
2018-11-21T09:15:14.951Z,49.07
2018-11-21T09:18:19.667Z,33.67
2018-11-21T09:21:24.323Z,32.53
2018-11-21T09:24:28.932Z,35.87
2018-11-21T09:27:33.993Z,33.10
2018-11-21T09:30:38.997Z,38.47
2018-11-21T09:33:43.606Z,39.87
2018-11-21T09:36:48.236Z,34.50
2018-11-21T09:39:52.831Z,35.23
2018-11-21T09:42:57.471Z,34.13
2018-11-21T09:46:02.087Z,32.43
2018-11-21T09:49:07.811Z,34.40
2018-11-21T09:52:11.511Z,30.63
2018-11-21T09:55:16.332Z,32.17
2018-11-21T09:58:20.958Z,33.60
2018-11-21T10:02:02.628Z,29.77
2018-11-21T10:05:07.695Z,31.40
2018-11-21T10:08:48.451Z,33.90
2018-11-21T10:11:53.854Z,30.77
2018-11-21T10:14:58.541Z,32.70
2018-11-21T10:18:03.763Z,36.83
2018-11-21T10:21:14.063Z,27.83
2018-11-21T10:24:19.092Z,45.20
2018-11-21T10:27:23.702Z,36.47
2018-11-21T10:30:28.339Z,33.67
2018-11-21T10:33:33.191Z,34.77
2018-11-21T10:36:37.802Z,32.23
2018-11-21T10:39:42.437Z,32.13
2018-11-21T10:42:47.404Z,27.57
2018-11-21T10:45:52.426Z,29.77
2018-11-21T10:48:57.428Z,30.63
2018-11-21T10:52:02.074Z,27.07
2018-11-21T10:55:06.747Z,28.67
2018-11-21T10:58:11.409Z,30.33
2018-11-21T11:01:34.055Z,27.57
2018-11-21T11:05:01.100Z,26.57
2018-11-21T11:08:23.842Z,31.77
2018-11-21T11:11:46.828Z,27.47
2018-11-21T11:15:34.728Z,30.50
2018-11-21T11:22:27.232Z,29.17
2018-11-21T11:25:58.526Z,25.03
2018-11-21T11:29:21.477Z,30.90
2018-11-21T11:32:38.364Z,31.53
2018-11-21T11:36:01.525Z,35.53
2018-11-21T11:39:22.175Z,29.83
2018-11-21T11:42:45.943Z,34.13
2018-11-21T11:46:12.953Z,74.57
2018-11-21T11:49:36.348Z,49.30
2018-11-21T11:52:59.708Z,33.90
2018-11-21T11:56:23.068Z,35.50
2018-11-21T11:59:52.670Z,30.10
2018-11-21T12:03:17.002Z,26.03
2018-11-21T12:06:40.187Z,30.63
